Aalderdijk — A8VB7 — position and weather

sailwx.info

Track history (hours):
 
Tides and Currents Weather Stations Pressure Air Temp Water Temp Dewpoint Dewpoint Depression Visibility Wind Speed Wind Dir Waves Ship Positions

Aalderdijk

Last reported at 2018-May-25 10:30 UTC. Time now 2018-May-25 10:47 UTC.
Position N 38°34' W 010°02'.

Length 168 m; draft 10.7 m.

Type: Ship (hazmat cat A). MMSI: 636014588.

Date/timePositionNaut miles runAvg speedWind from/ knotsBaromVisibWave heightAir tempDewpointWater temp
2018-May-25 10:30N 38°34' W 010°02'611.2
2018-May-25 10:00N 38°40' W 010°05'611.5
2018-May-25 09:30N 38°45' W 010°05'611.6
2018-May-25 09:00N 38°51' W 010°05'611.7
2018-May-25 08:30N 38°57' W 010°05'611.5
2018-May-25 08:00N 39°03' W 010°05'611.8
2018-May-25 07:30N 39°09' W 010°06'611.6
2018-May-25 07:00N 39°15' W 010°05'611.6
2018-May-25 06:30N 39°20' W 010°05'712.2
2018-May-25 05:58N 39°27' W 010°05'299 9.5
2018-May-23 22:36N 43°46' W 006°47'512.1
2018-May-23 22:09N 43°46' W 006°40'412.4
2018-May-23 21:49N 43°45' W 006°34'512.2
2018-May-23 21:23N 43°45' W 006°27'1111.9
2018-May-23 20:29N 43°44' W 006°12'611.9
2018-May-23 19:59N 43°43' W 006°04'611.8
2018-May-23 19:29N 43°42' W 005°56'611.4
2018-May-23 18:59N 43°41' W 005°48'711.5
2018-May-23 18:23N 43°37' W 005°40'3 8.5
2018-May-23 17:59N 43°34' W 005°41'0 0.2
2018-May-23 16:42N 43°33' W 005°41'0 0.0
2018-May-23 10:48N 43°33' W 005°41'0 0.0
2018-May-23 07:30N 43°33' W 005°41'0 0.0
2018-May-23 05:54N 43°33' W 005°41'0 0.2
2018-May-23 05:29N 43°33' W 005°41'3 6.0
2018-May-23 05:00N 43°35' W 005°38'2 4.0
2018-May-23 04:29N 43°36' W 005°35'2 4.3
2018-May-23 03:58N 43°36' W 005°32'2 3.4
2018-May-23 03:28N 43°36' W 005°30'3 5.3
2018-May-23 02:59N 43°35' W 005°26'5 9.1
2018-May-23 02:28N 43°35' W 005°20'4 8.9
2018-May-23 02:00N 43°35' W 005°14'4 8.8
2018-May-23 01:30N 43°35' W 005°08'5 8.7
2018-May-23 00:58N 43°35' W 005°02'4 8.7
2018-May-23 00:30N 43°35' W 004°56'4 8.4
2018-May-23 00:00N 43°35' W 004°50'5 8.3
2018-May-22 23:27N 43°35' W 004°44'4 8.8
2018-May-22 23:00N 43°35' W 004°39'17 8.7
2018-May-22 21:02N 43°35' W 004°15'1 8.8
2018-May-22 20:58N 43°35' W 004°14'4 8.9
2018-May-22 20:30N 43°35' W 004°08'4 8.9
2018-May-22 20:00N 43°35' W 004°02'5 9.0
2018-May-22 19:30N 43°35' W 003°56'4 9.0
2018-May-22 19:00N 43°35' W 003°50'4 8.6
2018-May-22 18:30N 43°35' W 003°44'4 8.1
2018-May-22 18:00N 43°35' W 003°38'4 8.3
2018-May-22 17:30N 43°35' W 003°33'4 8.5
2018-May-22 17:00N 43°34' W 003°27'4 8.4
2018-May-22 16:30N 43°32' W 003°21'4 8.2
2018-May-22 16:00N 43°30' W 003°17'4 7.4
2018-May-22 15:30N 43°28' W 003°12'4 7.2
2018-May-22 15:00N 43°26' W 003°08'4 8.9
2018-May-22 14:31N 43°23' W 003°05'2 4.5
2018-May-22 14:00N 43°21' W 003°03'0 0.0
2018-May-22 13:30N 43°21' W 003°03'0 0.0
2018-May-22 13:00N 43°21' W 003°03'0 0.0
2018-May-22 12:28N 43°21' W 003°03'0 0.0
2018-May-22 11:58N 43°21' W 003°03'0 0.0
2018-May-22 11:28N 43°21' W 003°03'0 0.0
2018-May-22 10:55N 43°21' W 003°03'0 0.0
2018-May-22 10:28N 43°21' W 003°03'0 0.0
2018-May-22 09:58N 43°21' W 003°03'0 0.0
2018-May-22 09:28N 43°21' W 003°03'0 0.0
2018-May-22 08:58N 43°21' W 003°03'0 0.0
2018-May-22 08:28N 43°21' W 003°03'0 0.0
2018-May-22 07:55N 43°21' W 003°03'0 0.0
2018-May-22 07:28N 43°21' W 003°03'0 0.0
2018-May-22 06:58N 43°21' W 003°03'0 0.0
2018-May-22 06:28N 43°21' W 003°03'0 0.0
2018-May-22 05:58N 43°21' W 003°03'0 0.0
2018-May-22 05:28N 43°21' W 003°03'0 0.0
2018-May-22 04:58N 43°21' W 003°03'0 0.0
2018-May-22 04:28N 43°21' W 003°03'0 0.0
2018-May-22 03:55N 43°21' W 003°03'0 0.0
2018-May-22 03:28N 43°21' W 003°03'0 0.0
2018-May-22 02:58N 43°21' W 003°03'0 0.0
2018-May-22 02:28N 43°21' W 003°03'0 0.0
2018-May-22 01:58N 43°21' W 003°03'0 0.0
2018-May-22 01:28N 43°21' W 003°03'0 0.0
2018-May-22 00:58N 43°21' W 003°03'0 0.0
2018-May-22 00:28N 43°21' W 003°03'0 0.0
2018-May-21 23:58N 43°21' W 003°03'0 0.0
2018-May-21 23:28N 43°21' W 003°03'0 0.0
2018-May-21 22:58N 43°21' W 003°03'0 0.0
2018-May-21 22:28N 43°21' W 003°03'0 0.0
2018-May-21 21:58N 43°21' W 003°03'0 0.0
2018-May-21 21:28N 43°21' W 003°03'0 0.0
2018-May-21 20:55N 43°21' W 003°03'0 0.0
2018-May-21 20:22N 43°21' W 003°03'0 0.0
2018-May-21 19:58N 43°21' W 003°03'0 0.0
2018-May-21 19:28N 43°21' W 003°03'0 0.0
2018-May-21 18:58N 43°21' W 003°03'0 0.0
2018-May-21 18:28N 43°21' W 003°03'0 0.0
2018-May-21 17:58N 43°21' W 003°03'0 0.0
2018-May-21 17:28N 43°21' W 003°03'0 0.0
2018-May-21 16:58N 43°21' W 003°03'0 0.0
2018-May-21 16:28N 43°21' W 003°03'0 0.0
2018-May-21 15:58N 43°21' W 003°03'0 0.0
2018-May-21 15:28N 43°21' W 003°03'0 0.0
2018-May-21 14:58N 43°21' W 003°03'0 0.0
2018-May-21 14:28N 43°21' W 003°03'0 0.0
2018-May-21 13:58N 43°21' W 003°03'0 0.0
2018-May-21 13:28N 43°21' W 003°03'0 0.0
2018-May-21 12:58N 43°21' W 003°03'0 0.0
2018-May-21 12:28N 43°21' W 003°03'0 0.0
2018-May-21 11:55N 43°21' W 003°03'0 0.0
2018-May-21 11:25N 43°21' W 003°03'0 0.0
2018-May-21 10:58N 43°21' W 003°03'0 0.0
2018-May-21 10:28N 43°21' W 003°03'0 0.0
2018-May-21 09:58N 43°21' W 003°03'0 0.0
2018-May-21 09:19N 43°21' W 003°03'0 0.0
2018-May-21 08:55N 43°21' W 003°03'0 0.0
2018-May-21 08:28N 43°21' W 003°03'0 0.0
2018-May-21 07:58N 43°21' W 003°03'0 0.0
2018-May-21 07:25N 43°21' W 003°03'0 0.0
2018-May-21 06:55N 43°21' W 003°03'0 0.0
2018-May-21 06:28N 43°21' W 003°03'0 0.0
2018-May-21 05:55N 43°21' W 003°03'0 0.0
2018-May-21 05:28N 43°21' W 003°03'0 0.0
2018-May-21 05:00N 43°21' W 003°03'1 2.2
2018-May-21 04:30N 43°22' W 003°03'4 7.9
2018-May-21 04:00N 43°25' W 003°07'816.0
2018-May-21 03:30N 43°30' W 003°15'815.7
2018-May-21 03:00N 43°33' W 003°25'815.6
2018-May-21 02:30N 43°34' W 003°35'815.5
2018-May-21 02:00N 43°35' W 003°46'815.9
2018-May-21 01:30N 43°36' W 003°57'816.1
2018-May-21 01:00N 43°37' W 004°08'815.9
2018-May-21 00:30N 43°38' W 004°19'815.9
2018-May-21 00:00N 43°38' W 004°30'815.7
2018-May-20 23:30N 43°39' W 004°41'815.9
2018-May-20 23:00N 43°40' W 004°52'816.2
2018-May-20 22:30N 43°41' W 005°03'816.5
2018-May-20 22:00N 43°42' W 005°14'916.2
2018-May-20 21:28N 43°43' W 005°26'916.3
2018-May-20 20:56N 43°44' W 005°38'715.9
2018-May-20 20:30N 43°45' W 005°48'815.9
2018-May-20 19:58N 43°45' W 005°59'715.7
2018-May-20 19:30N 43°46' W 006°09'816.2
2018-May-20 19:00N 43°47' W 006°21'815.7
2018-May-20 18:31N 43°47' W 006°31'815.2
2018-May-20 18:00N 43°48' W 006°42'815.3
2018-May-20 17:30N 43°48' W 006°52'815.7
2018-May-20 17:00N 43°49' W 007°03'19512.4
2018-May-20 01:16N 41°16' W 009°47'715.7
2018-May-20 00:48N 41°08' W 009°47'615.6
2018-May-20 00:25N 41°03' W 009°47'715.9
2018-May-19 23:58N 40°56' W 009°47'4415.9
2018-May-19 21:12N 40°11' W 009°50'415.7
2018-May-19 20:57N 40°08' W 009°51'1415.8
2018-May-19 20:03N 39°54' W 009°50'115.8
2018-May-19 20:00N 39°53' W 009°50'1015.7
2018-May-19 19:23N 39°43' W 009°50'915.9
2018-May-19 18:50N 39°34' W 009°50'515.5
2018-May-19 18:30N 39°29' W 009°50'815.7
2018-May-19 18:00N 39°21' W 009°50'815.6
2018-May-19 17:28N 39°13' W 009°51'715.8
2018-May-19 17:00N 39°06' W 009°51'815.8
2018-May-19 16:30N 38°58' W 009°51'815.6
2018-May-19 16:00N 38°50' W 009°51'815.9
2018-May-19 15:30N 38°42' W 009°50'714.7
2018-May-19 15:00N 38°35' W 009°46'815.4
2018-May-19 14:30N 38°30' W 009°39'815.3
2018-May-19 14:00N 38°25' W 009°32'815.1
2018-May-19 13:30N 38°20' W 009°25'815.2
2018-May-19 13:00N 38°14' W 009°18'815.4
2018-May-19 12:30N 38°09' W 009°11'815.5
2018-May-19 12:00N 38°04' W 009°04'815.3
2018-May-19 11:30N 37°58' W 008°57'612.0
2018-May-19 11:00N 37°55' W 008°51'1 2.0
2018-May-19 10:29N 37°56' W 008°51'0 0.0
2018-May-19 09:59N 37°56' W 008°51'0 0.0
2018-May-19 09:29N 37°56' W 008°51'0 0.0
2018-May-19 08:59N 37°56' W 008°51'0 0.0
2018-May-19 08:29N 37°56' W 008°51'0 0.0
2018-May-19 07:59N 37°56' W 008°51'0 0.0
2018-May-19 07:29N 37°56' W 008°51'0 0.0
2018-May-19 06:59N 37°56' W 008°51'0 0.0
2018-May-19 06:29N 37°56' W 008°51'0 0.0
2018-May-19 05:59N 37°56' W 008°51'0 0.0
2018-May-19 05:26N 37°56' W 008°51'0 0.0
2018-May-19 04:59N 37°56' W 008°51'0 0.0
2018-May-19 04:29N 37°56' W 008°51'0 0.0
2018-May-19 03:59N 37°56' W 008°51'0 0.0
2018-May-19 03:29N 37°56' W 008°51'0 0.0
2018-May-19 02:59N 37°56' W 008°51'0 0.0
2018-May-19 02:29N 37°56' W 008°51'0 0.0
2018-May-19 01:59N 37°56' W 008°51'0 0.0
2018-May-19 01:29N 37°56' W 008°51'0 0.0
2018-May-19 00:59N 37°56' W 008°51'0 0.0
2018-May-19 00:29N 37°56' W 008°51'0 0.0
2018-May-18 23:59N 37°56' W 008°51'0 0.0
2018-May-18 23:29N 37°56' W 008°51'0 0.0
2018-May-18 22:59N 37°56' W 008°51'0 0.0
2018-May-18 22:29N 37°56' W 008°51'0 0.0
2018-May-18 21:59N 37°56' W 008°51'0 0.0
2018-May-18 21:29N 37°56' W 008°51'0 0.0
2018-May-18 20:59N 37°56' W 008°51'0 0.0
2018-May-18 20:29N 37°56' W 008°51'0 0.0
2018-May-18 19:59N 37°56' W 008°51'0 0.0
2018-May-18 19:29N 37°56' W 008°51'0 0.0
2018-May-18 18:59N 37°56' W 008°51'0 0.0
2018-May-18 18:29N 37°56' W 008°51'0 0.0
2018-May-18 17:59N 37°56' W 008°51'0 0.0
2018-May-18 17:29N 37°56' W 008°51'0 0.0
2018-May-18 16:56N 37°56' W 008°51'0 0.0
2018-May-18 16:29N 37°56' W 008°51'0 0.0
2018-May-18 15:59N 37°56' W 008°51'0 0.0
2018-May-18 15:26N 37°56' W 008°51'0 0.0
2018-May-18 14:59N 37°56' W 008°51'0 0.0
2018-May-18 14:29N 37°56' W 008°51'0 0.0
2018-May-18 13:59N 37°56' W 008°51'0 0.0
2018-May-18 13:29N 37°56' W 008°51'0 0.0
2018-May-18 12:59N 37°56' W 008°51'0 0.0
2018-May-18 12:29N 37°56' W 008°51'0 0.0
2018-May-18 11:59N 37°56' W 008°51'0 0.0
2018-May-18 11:29N 37°56' W 008°51'0 0.0
2018-May-18 10:59N 37°56' W 008°51'0 0.0
2018-May-18 10:29N 37°56' W 008°51'0 0.0
2018-May-18 09:59N 37°56' W 008°51'0 0.0
2018-May-18 09:29N 37°56' W 008°51'0 0.0
2018-May-18 08:59N 37°56' W 008°51'0 0.0
2018-May-18 08:26N 37°56' W 008°51'0 0.0
2018-May-18 07:59N 37°56' W 008°51'0 0.0
2018-May-18 07:29N 37°56' W 008°51'0 0.0
2018-May-18 06:59N 37°56' W 008°51'0 0.0
2018-May-18 06:29N 37°56' W 008°51'0 0.0
2018-May-18 05:59N 37°56' W 008°51'0 0.0
2018-May-18 05:29N 37°56' W 008°51'0 0.0
2018-May-18 04:59N 37°56' W 008°51'0 0.0
2018-May-18 04:29N 37°56' W 008°51'0 0.0
2018-May-18 03:56N 37°56' W 008°51'0 0.0
2018-May-18 03:29N 37°56' W 008°51'0 0.0
2018-May-18 02:59N 37°56' W 008°51'0 0.0
2018-May-18 02:29N 37°56' W 008°51'0 0.0
2018-May-18 01:59N 37°56' W 008°51'0 0.0
2018-May-18 01:29N 37°56' W 008°51'0 0.0
2018-May-18 00:59N 37°56' W 008°51'0 0.0
2018-May-18 00:29N 37°56' W 008°51'0 0.0
2018-May-17 23:59N 37°56' W 008°51'0 0.0
2018-May-17 23:29N 37°56' W 008°51'0 0.0
2018-May-17 22:59N 37°56' W 008°51'0 0.0
2018-May-17 22:29N 37°56' W 008°51'0 0.0
2018-May-17 21:59N 37°56' W 008°51'0 0.0
2018-May-17 21:29N 37°56' W 008°51'0 0.0
2018-May-17 20:59N 37°56' W 008°51'0 0.0
2018-May-17 20:29N 37°56' W 008°51'0 0.0
2018-May-17 19:59N 37°56' W 008°51'0 0.0
2018-May-17 19:29N 37°56' W 008°51'0 0.0
2018-May-17 18:59N 37°56' W 008°51'0 0.0
2018-May-17 18:29N 37°56' W 008°51'0 0.0
2018-May-17 17:59N 37°56' W 008°51'0 0.0
2018-May-17 17:29N 37°56' W 008°51'0 0.0
2018-May-17 16:59N 37°56' W 008°51'0 0.0
2018-May-17 16:29N 37°56' W 008°51'0 0.0
2018-May-17 15:56N 37°56' W 008°51'0 0.0
2018-May-17 15:29N 37°56' W 008°51'0 0.0
2018-May-17 14:59N 37°56' W 008°51'0 0.0
2018-May-17 14:29N 37°56' W 008°51'0 0.0
2018-May-17 13:59N 37°56' W 008°51'0 0.0
2018-May-17 13:29N 37°56' W 008°51'0 0.0
2018-May-17 12:59N 37°56' W 008°51'0 0.0
2018-May-17 12:29N 37°56' W 008°51'0 0.0
2018-May-17 11:59N 37°56' W 008°51'0 0.0
2018-May-17 11:29N 37°56' W 008°51'0 0.0
2018-May-17 10:59N 37°56' W 008°51'0 0.0
2018-May-17 10:29N 37°56' W 008°51'0 0.0
2018-May-17 09:50N 37°56' W 008°51'0 0.0
2018-May-17 09:29N 37°56' W 008°51'0 0.0
2018-May-17 08:59N 37°56' W 008°51'0 0.0
2018-May-17 08:29N 37°56' W 008°51'0 0.0
2018-May-17 07:59N 37°56' W 008°51'0 0.0
2018-May-17 07:29N 37°56' W 008°51'0 0.0
2018-May-17 06:59N 37°56' W 008°51'0 0.0
2018-May-17 06:29N 37°56' W 008°51'0 0.0
2018-May-17 05:59N 37°56' W 008°51'0 0.0
2018-May-17 05:29N 37°56' W 008°51'0 0.0
2018-May-17 04:59N 37°56' W 008°51'0 0.0
2018-May-17 04:29N 37°56' W 008°51'0 0.0
2018-May-17 03:59N 37°56' W 008°51'0 0.0
2018-May-17 03:29N 37°56' W 008°51'0 0.0
2018-May-17 02:59N 37°56' W 008°51'0 0.0
2018-May-17 02:29N 37°56' W 008°51'0 0.0
2018-May-17 01:59N 37°56' W 008°51'0 0.0
2018-May-17 01:29N 37°56' W 008°51'0 0.0
2018-May-17 00:59N 37°56' W 008°51'0 0.0
2018-May-17 00:29N 37°56' W 008°51'0 0.0
2018-May-16 23:59N 37°56' W 008°51'0 0.0
2018-May-16 23:29N 37°56' W 008°51'0 0.0
2018-May-16 22:59N 37°56' W 008°51'0 0.0
2018-May-16 22:29N 37°56' W 008°51'0 0.0
2018-May-16 21:59N 37°56' W 008°51'0 0.0
2018-May-16 21:29N 37°56' W 008°51'0 0.0
2018-May-16 20:59N 37°56' W 008°51'0 0.0
2018-May-16 20:29N 37°56' W 008°51'0 0.0
2018-May-16 19:56N 37°56' W 008°51'0 0.0
2018-May-16 19:29N 37°56' W 008°51'0 0.0
2018-May-16 18:59N 37°56' W 008°51'1 1.2
2018-May-16 18:30N 37°56' W 008°51'2 3.6
2018-May-16 18:01N 37°54' W 008°52'0 0.4
2018-May-16 17:29N 37°54' W 008°51'0 0.0
2018-May-16 16:59N 37°54' W 008°51'0 0.0
2018-May-16 16:29N 37°54' W 008°51'0 0.0
2018-May-16 15:59N 37°54' W 008°51'0 0.1
2018-May-16 15:29N 37°54' W 008°51'0 0.0
2018-May-16 14:59N 37°54' W 008°51'0 0.0
2018-May-16 14:29N 37°54' W 008°51'0 0.0
2018-May-16 13:59N 37°54' W 008°51'0 0.0
2018-May-16 13:26N 37°54' W 008°51'0 0.0
2018-May-16 12:59N 37°54' W 008°51'0 0.0
2018-May-16 12:29N 37°54' W 008°51'0 0.0
2018-May-16 11:59N 37°54' W 008°51'0 0.0
2018-May-16 11:29N 37°54' W 008°51'0 0.0
2018-May-16 10:59N 37°54' W 008°51'0 0.0
2018-May-16 10:29N 37°54' W 008°51'0 0.0
2018-May-16 09:59N 37°54' W 008°51'0 0.0
2018-May-16 09:29N 37°54' W 008°51'0 0.0
2018-May-16 08:59N 37°54' W 008°51'0 0.0
2018-May-16 08:29N 37°54' W 008°51'0 0.0
2018-May-16 07:59N 37°54' W 008°51'0 0.0
2018-May-16 07:29N 37°54' W 008°51'0 0.0
2018-May-16 06:59N 37°54' W 008°51'0 0.0
2018-May-16 06:29N 37°54' W 008°51'0 0.0
2018-May-16 05:59N 37°54' W 008°51'0 0.0
2018-May-16 05:29N 37°54' W 008°51'0 0.0
2018-May-16 04:59N 37°54' W 008°51'0 0.0
2018-May-16 04:29N 37°54' W 008°51'0 0.0
2018-May-16 03:59N 37°54' W 008°51'0 0.0
2018-May-16 03:29N 37°54' W 008°51'0 0.0
2018-May-16 02:59N 37°54' W 008°51'0 0.0
2018-May-16 02:29N 37°54' W 008°51'0 0.1
2018-May-16 01:59N 37°54' W 008°51'0 0.0
2018-May-16 01:29N 37°54' W 008°51'0 0.0
2018-May-16 00:59N 37°54' W 008°51'0 0.0
2018-May-16 00:29N 37°54' W 008°51'0 0.0
2018-May-15 23:59N 37°54' W 008°51'0 0.1
2018-May-15 23:29N 37°54' W 008°51'0 0.0
2018-May-15 22:59N 37°54' W 008°51'0 0.0
2018-May-15 22:29N 37°54' W 008°51'0 0.0
2018-May-15 21:59N 37°54' W 008°51'0 0.0
2018-May-15 21:29N 37°54' W 008°51'0 0.0
2018-May-15 20:59N 37°54' W 008°51'0 0.0
2018-May-15 20:29N 37°54' W 008°51'0 0.0
2018-May-15 19:59N 37°54' W 008°51'0 0.0
2018-May-15 19:29N 37°54' W 008°51'0 0.0
2018-May-15 18:59N 37°54' W 008°51'0 0.0
2018-May-15 18:29N 37°54' W 008°51'0 0.0
2018-May-15 17:59N 37°54' W 008°51'0 0.0
2018-May-15 17:29N 37°54' W 008°51'0 0.0
2018-May-15 16:59N 37°54' W 008°51'0 0.0
2018-May-15 16:29N 37°54' W 008°51'0 0.1
2018-May-15 15:59N 37°54' W 008°51'0 0.5
2018-May-15 15:31N 37°54' W 008°52'1 1.8
2018-May-15 15:00N 37°55' W 008°52'612.0
2018-May-15 14:30N 37°59' W 008°58'612.3
2018-May-15 14:00N 38°03' W 009°04'612.0
2018-May-15 13:30N 38°06' W 009°10'611.9
2018-May-15 13:00N 38°09' W 009°17'612.0
2018-May-15 12:30N 38°12' W 009°23'612.0
2018-May-15 12:00N 38°16' W 009°29'611.8
2018-May-15 11:30N 38°19' W 009°36'611.6
2018-May-15 11:00N 38°22' W 009°42'  
Track history (hours):
 
Tides and Currents Weather Stations Pressure Air Temp Water Temp Dewpoint Dewpoint Depression Visibility Wind Speed Wind Dir Waves Ship Positions

Aalderdijk

Last reported at 2018-May-25 10:30 UTC. Time now 2018-May-25 10:47 UTC.
Position N 38°34' W 010°02'.

Length 168 m; draft 10.7 m.

Type: Ship (hazmat cat A). MMSI: 636014588.

Date/timePositionNaut miles runAvg speedWind from/ knotsBaromVisibWave heightAir tempDewpointWater temp
2018-May-25 10:30N 38°34' W 010°02'611.2
2018-May-25 10:00N 38°40' W 010°05'611.5
2018-May-25 09:30N 38°45' W 010°05'611.6
2018-May-25 09:00N 38°51' W 010°05'611.7
2018-May-25 08:30N 38°57' W 010°05'611.5
2018-May-25 08:00N 39°03' W 010°05'611.8
2018-May-25 07:30N 39°09' W 010°06'611.6
2018-May-25 07:00N 39°15' W 010°05'611.6
2018-May-25 06:30N 39°20' W 010°05'712.2
2018-May-25 05:58N 39°27' W 010°05'299 9.5
2018-May-23 22:36N 43°46' W 006°47'512.1
2018-May-23 22:09N 43°46' W 006°40'412.4
2018-May-23 21:49N 43°45' W 006°34'512.2
2018-May-23 21:23N 43°45' W 006°27'1111.9
2018-May-23 20:29N 43°44' W 006°12'611.9
2018-May-23 19:59N 43°43' W 006°04'611.8
2018-May-23 19:29N 43°42' W 005°56'611.4
2018-May-23 18:59N 43°41' W 005°48'711.5
2018-May-23 18:23N 43°37' W 005°40'3 8.5
2018-May-23 17:59N 43°34' W 005°41'0 0.2
2018-May-23 16:42N 43°33' W 005°41'0 0.0
2018-May-23 10:48N 43°33' W 005°41'0 0.0
2018-May-23 07:30N 43°33' W 005°41'0 0.0
2018-May-23 05:54N 43°33' W 005°41'0 0.2
2018-May-23 05:29N 43°33' W 005°41'3 6.0
2018-May-23 05:00N 43°35' W 005°38'2 4.0
2018-May-23 04:29N 43°36' W 005°35'2 4.3
2018-May-23 03:58N 43°36' W 005°32'2 3.4
2018-May-23 03:28N 43°36' W 005°30'3 5.3
2018-May-23 02:59N 43°35' W 005°26'5 9.1
2018-May-23 02:28N 43°35' W 005°20'4 8.9
2018-May-23 02:00N 43°35' W 005°14'4 8.8
2018-May-23 01:30N 43°35' W 005°08'5 8.7
2018-May-23 00:58N 43°35' W 005°02'4 8.7
2018-May-23 00:30N 43°35' W 004°56'4 8.4
2018-May-23 00:00N 43°35' W 004°50'5 8.3
2018-May-22 23:27N 43°35' W 004°44'4 8.8
2018-May-22 23:00N 43°35' W 004°39'17 8.7
2018-May-22 21:02N 43°35' W 004°15'1 8.8
2018-May-22 20:58N 43°35' W 004°14'4 8.9
2018-May-22 20:30N 43°35' W 004°08'4 8.9
2018-May-22 20:00N 43°35' W 004°02'5 9.0
2018-May-22 19:30N 43°35' W 003°56'4 9.0
2018-May-22 19:00N 43°35' W 003°50'4 8.6
2018-May-22 18:30N 43°35' W 003°44'4 8.1
2018-May-22 18:00N 43°35' W 003°38'4 8.3
2018-May-22 17:30N 43°35' W 003°33'4 8.5
2018-May-22 17:00N 43°34' W 003°27'4 8.4
2018-May-22 16:30N 43°32' W 003°21'4 8.2
2018-May-22 16:00N 43°30' W 003°17'4 7.4
2018-May-22 15:30N 43°28' W 003°12'4 7.2
2018-May-22 15:00N 43°26' W 003°08'4 8.9
2018-May-22 14:31N 43°23' W 003°05'2 4.5
2018-May-22 14:00N 43°21' W 003°03'0 0.0
2018-May-22 13:30N 43°21' W 003°03'0 0.0
2018-May-22 13:00N 43°21' W 003°03'0 0.0
2018-May-22 12:28N 43°21' W 003°03'0 0.0
2018-May-22 11:58N 43°21' W 003°03'0 0.0
2018-May-22 11:28N 43°21' W 003°03'0 0.0
2018-May-22 10:55N 43°21' W 003°03'0 0.0
2018-May-22 10:28N 43°21' W 003°03'0 0.0
2018-May-22 09:58N 43°21' W 003°03'0 0.0
2018-May-22 09:28N 43°21' W 003°03'0 0.0
2018-May-22 08:58N 43°21' W 003°03'0 0.0
2018-May-22 08:28N 43°21' W 003°03'0 0.0
2018-May-22 07:55N 43°21' W 003°03'0 0.0
2018-May-22 07:28N 43°21' W 003°03'0 0.0
2018-May-22 06:58N 43°21' W 003°03'0 0.0
2018-May-22 06:28N 43°21' W 003°03'0 0.0
2018-May-22 05:58N 43°21' W 003°03'0 0.0
2018-May-22 05:28N 43°21' W 003°03'0 0.0
2018-May-22 04:58N 43°21' W 003°03'0 0.0
2018-May-22 04:28N 43°21' W 003°03'0 0.0
2018-May-22 03:55N 43°21' W 003°03'0 0.0
2018-May-22 03:28N 43°21' W 003°03'0 0.0
2018-May-22 02:58N 43°21' W 003°03'0 0.0
2018-May-22 02:28N 43°21' W 003°03'0 0.0
2018-May-22 01:58N 43°21' W 003°03'0 0.0
2018-May-22 01:28N 43°21' W 003°03'0 0.0
2018-May-22 00:58N 43°21' W 003°03'0 0.0
2018-May-22 00:28N 43°21' W 003°03'0 0.0
2018-May-21 23:58N 43°21' W 003°03'0 0.0
2018-May-21 23:28N 43°21' W 003°03'0 0.0
2018-May-21 22:58N 43°21' W 003°03'0 0.0
2018-May-21 22:28N 43°21' W 003°03'0 0.0
2018-May-21 21:58N 43°21' W 003°03'0 0.0
2018-May-21 21:28N 43°21' W 003°03'0 0.0
2018-May-21 20:55N 43°21' W 003°03'0 0.0
2018-May-21 20:22N 43°21' W 003°03'0 0.0
2018-May-21 19:58N 43°21' W 003°03'0 0.0
2018-May-21 19:28N 43°21' W 003°03'0 0.0
2018-May-21 18:58N 43°21' W 003°03'0 0.0
2018-May-21 18:28N 43°21' W 003°03'0 0.0
2018-May-21 17:58N 43°21' W 003°03'0 0.0
2018-May-21 17:28N 43°21' W 003°03'0 0.0
2018-May-21 16:58N 43°21' W 003°03'0 0.0
2018-May-21 16:28N 43°21' W 003°03'0 0.0
2018-May-21 15:58N 43°21' W 003°03'0 0.0
2018-May-21 15:28N 43°21' W 003°03'0 0.0
2018-May-21 14:58N 43°21' W 003°03'0 0.0
2018-May-21 14:28N 43°21' W 003°03'0 0.0
2018-May-21 13:58N 43°21' W 003°03'0 0.0
2018-May-21 13:28N 43°21' W 003°03'0 0.0
2018-May-21 12:58N 43°21' W 003°03'0 0.0
2018-May-21 12:28N 43°21' W 003°03'0 0.0
2018-May-21 11:55N 43°21' W 003°03'0 0.0
2018-May-21 11:25N 43°21' W 003°03'0 0.0
2018-May-21 10:58N 43°21' W 003°03'0 0.0
2018-May-21 10:28N 43°21' W 003°03'0 0.0
2018-May-21 09:58N 43°21' W 003°03'0 0.0
2018-May-21 09:19N 43°21' W 003°03'0 0.0
2018-May-21 08:55N 43°21' W 003°03'0 0.0
2018-May-21 08:28N 43°21' W 003°03'0 0.0
2018-May-21 07:58N 43°21' W 003°03'0 0.0
2018-May-21 07:25N 43°21' W 003°03'0 0.0
2018-May-21 06:55N 43°21' W 003°03'0 0.0
2018-May-21 06:28N 43°21' W 003°03'0 0.0
2018-May-21 05:55N 43°21' W 003°03'0 0.0
2018-May-21 05:28N 43°21' W 003°03'0 0.0
2018-May-21 05:00N 43°21' W 003°03'1 2.2
2018-May-21 04:30N 43°22' W 003°03'4 7.9
2018-May-21 04:00N 43°25' W 003°07'816.0
2018-May-21 03:30N 43°30' W 003°15'815.7
2018-May-21 03:00N 43°33' W 003°25'815.6
2018-May-21 02:30N 43°34' W 003°35'815.5
2018-May-21 02:00N 43°35' W 003°46'815.9
2018-May-21 01:30N 43°36' W 003°57'816.1
2018-May-21 01:00N 43°37' W 004°08'815.9
2018-May-21 00:30N 43°38' W 004°19'815.9
2018-May-21 00:00N 43°38' W 004°30'815.7
2018-May-20 23:30N 43°39' W 004°41'815.9
2018-May-20 23:00N 43°40' W 004°52'816.2
2018-May-20 22:30N 43°41' W 005°03'816.5
2018-May-20 22:00N 43°42' W 005°14'916.2
2018-May-20 21:28N 43°43' W 005°26'916.3
2018-May-20 20:56N 43°44' W 005°38'715.9
2018-May-20 20:30N 43°45' W 005°48'815.9
2018-May-20 19:58N 43°45' W 005°59'715.7
2018-May-20 19:30N 43°46' W 006°09'816.2
2018-May-20 19:00N 43°47' W 006°21'815.7
2018-May-20 18:31N 43°47' W 006°31'815.2
2018-May-20 18:00N 43°48' W 006°42'815.3
2018-May-20 17:30N 43°48' W 006°52'815.7
2018-May-20 17:00N 43°49' W 007°03'19512.4
2018-May-20 01:16N 41°16' W 009°47'715.7
2018-May-20 00:48N 41°08' W 009°47'615.6
2018-May-20 00:25N 41°03' W 009°47'715.9
2018-May-19 23:58N 40°56' W 009°47'4415.9
2018-May-19 21:12N 40°11' W 009°50'415.7
2018-May-19 20:57N 40°08' W 009°51'1415.8
2018-May-19 20:03N 39°54' W 009°50'115.8
2018-May-19 20:00N 39°53' W 009°50'1015.7
2018-May-19 19:23N 39°43' W 009°50'915.9
2018-May-19 18:50N 39°34' W 009°50'515.5
2018-May-19 18:30N 39°29' W 009°50'815.7
2018-May-19 18:00N 39°21' W 009°50'815.6
2018-May-19 17:28N 39°13' W 009°51'715.8
2018-May-19 17:00N 39°06' W 009°51'815.8
2018-May-19 16:30N 38°58' W 009°51'815.6
2018-May-19 16:00N 38°50' W 009°51'815.9
2018-May-19 15:30N 38°42' W 009°50'714.7
2018-May-19 15:00N 38°35' W 009°46'815.4
2018-May-19 14:30N 38°30' W 009°39'815.3
2018-May-19 14:00N 38°25' W 009°32'815.1
2018-May-19 13:30N 38°20' W 009°25'815.2
2018-May-19 13:00N 38°14' W 009°18'815.4
2018-May-19 12:30N 38°09' W 009°11'815.5
2018-May-19 12:00N 38°04' W 009°04'815.3
2018-May-19 11:30N 37°58' W 008°57'612.0
2018-May-19 11:00N 37°55' W 008°51'1 2.0
2018-May-19 10:29N 37°56' W 008°51'0 0.0
2018-May-19 09:59N 37°56' W 008°51'0 0.0
2018-May-19 09:29N 37°56' W 008°51'0 0.0
2018-May-19 08:59N 37°56' W 008°51'0 0.0
2018-May-19 08:29N 37°56' W 008°51'0 0.0
2018-May-19 07:59N 37°56' W 008°51'0 0.0
2018-May-19 07:29N 37°56' W 008°51'0 0.0
2018-May-19 06:59N 37°56' W 008°51'0 0.0
2018-May-19 06:29N 37°56' W 008°51'0 0.0
2018-May-19 05:59N 37°56' W 008°51'0 0.0
2018-May-19 05:26N 37°56' W 008°51'0 0.0
2018-May-19 04:59N 37°56' W 008°51'0 0.0
2018-May-19 04:29N 37°56' W 008°51'0 0.0
2018-May-19 03:59N 37°56' W 008°51'0 0.0
2018-May-19 03:29N 37°56' W 008°51'0 0.0
2018-May-19 02:59N 37°56' W 008°51'0 0.0
2018-May-19 02:29N 37°56' W 008°51'0 0.0
2018-May-19 01:59N 37°56' W 008°51'0 0.0
2018-May-19 01:29N 37°56' W 008°51'0 0.0
2018-May-19 00:59N 37°56' W 008°51'0 0.0
2018-May-19 00:29N 37°56' W 008°51'0 0.0
2018-May-18 23:59N 37°56' W 008°51'0 0.0
2018-May-18 23:29N 37°56' W 008°51'0 0.0
2018-May-18 22:59N 37°56' W 008°51'0 0.0
2018-May-18 22:29N 37°56' W 008°51'0 0.0
2018-May-18 21:59N 37°56' W 008°51'0 0.0
2018-May-18 21:29N 37°56' W 008°51'0 0.0
2018-May-18 20:59N 37°56' W 008°51'0 0.0
2018-May-18 20:29N 37°56' W 008°51'0 0.0
2018-May-18 19:59N 37°56' W 008°51'0 0.0
2018-May-18 19:29N 37°56' W 008°51'0 0.0
2018-May-18 18:59N 37°56' W 008°51'0 0.0
2018-May-18 18:29N 37°56' W 008°51'0 0.0
2018-May-18 17:59N 37°56' W 008°51'0 0.0
2018-May-18 17:29N 37°56' W 008°51'0 0.0
2018-May-18 16:56N 37°56' W 008°51'0 0.0
2018-May-18 16:29N 37°56' W 008°51'0 0.0
2018-May-18 15:59N 37°56' W 008°51'0 0.0
2018-May-18 15:26N 37°56' W 008°51'0 0.0
2018-May-18 14:59N 37°56' W 008°51'0 0.0
2018-May-18 14:29N 37°56' W 008°51'0 0.0
2018-May-18 13:59N 37°56' W 008°51'0 0.0
2018-May-18 13:29N 37°56' W 008°51'0 0.0
2018-May-18 12:59N 37°56' W 008°51'0 0.0
2018-May-18 12:29N 37°56' W 008°51'0 0.0
2018-May-18 11:59N 37°56' W 008°51'0 0.0
2018-May-18 11:29N 37°56' W 008°51'0 0.0
2018-May-18 10:59N 37°56' W 008°51'0 0.0
2018-May-18 10:29N 37°56' W 008°51'0 0.0
2018-May-18 09:59N 37°56' W 008°51'0 0.0
2018-May-18 09:29N 37°56' W 008°51'0 0.0
2018-May-18 08:59N 37°56' W 008°51'0 0.0
2018-May-18 08:26N 37°56' W 008°51'0 0.0
2018-May-18 07:59N 37°56' W 008°51'0 0.0
2018-May-18 07:29N 37°56' W 008°51'0 0.0
2018-May-18 06:59N 37°56' W 008°51'0 0.0
2018-May-18 06:29N 37°56' W 008°51'0 0.0
2018-May-18 05:59N 37°56' W 008°51'0 0.0
2018-May-18 05:29N 37°56' W 008°51'0 0.0
2018-May-18 04:59N 37°56' W 008°51'0 0.0
2018-May-18 04:29N 37°56' W 008°51'0 0.0
2018-May-18 03:56N 37°56' W 008°51'0 0.0
2018-May-18 03:29N 37°56' W 008°51'0 0.0
2018-May-18 02:59N 37°56' W 008°51'0 0.0
2018-May-18 02:29N 37°56' W 008°51'0 0.0
2018-May-18 01:59N 37°56' W 008°51'0 0.0
2018-May-18 01:29N 37°56' W 008°51'0 0.0
2018-May-18 00:59N 37°56' W 008°51'0 0.0
2018-May-18 00:29N 37°56' W 008°51'0 0.0
2018-May-17 23:59N 37°56' W 008°51'0 0.0
2018-May-17 23:29N 37°56' W 008°51'0 0.0
2018-May-17 22:59N 37°56' W 008°51'0 0.0
2018-May-17 22:29N 37°56' W 008°51'0 0.0
2018-May-17 21:59N 37°56' W 008°51'0 0.0
2018-May-17 21:29N 37°56' W 008°51'0 0.0
2018-May-17 20:59N 37°56' W 008°51'0 0.0
2018-May-17 20:29N 37°56' W 008°51'0 0.0
2018-May-17 19:59N 37°56' W 008°51'0 0.0
2018-May-17 19:29N 37°56' W 008°51'0 0.0
2018-May-17 18:59N 37°56' W 008°51'0 0.0
2018-May-17 18:29N 37°56' W 008°51'0 0.0
2018-May-17 17:59N 37°56' W 008°51'0 0.0
2018-May-17 17:29N 37°56' W 008°51'0 0.0
2018-May-17 16:59N 37°56' W 008°51'0 0.0
2018-May-17 16:29N 37°56' W 008°51'0 0.0
2018-May-17 15:56N 37°56' W 008°51'0 0.0
2018-May-17 15:29N 37°56' W 008°51'0 0.0
2018-May-17 14:59N 37°56' W 008°51'0 0.0
2018-May-17 14:29N 37°56' W 008°51'0 0.0
2018-May-17 13:59N 37°56' W 008°51'0 0.0
2018-May-17 13:29N 37°56' W 008°51'0 0.0
2018-May-17 12:59N 37°56' W 008°51'0 0.0
2018-May-17 12:29N 37°56' W 008°51'0 0.0
2018-May-17 11:59N 37°56' W 008°51'0 0.0
2018-May-17 11:29N 37°56' W 008°51'0 0.0
2018-May-17 10:59N 37°56' W 008°51'0 0.0
2018-May-17 10:29N 37°56' W 008°51'0 0.0
2018-May-17 09:50N 37°56' W 008°51'0 0.0
2018-May-17 09:29N 37°56' W 008°51'0 0.0
2018-May-17 08:59N 37°56' W 008°51'0 0.0
2018-May-17 08:29N 37°56' W 008°51'0 0.0
2018-May-17 07:59N 37°56' W 008°51'0 0.0
2018-May-17 07:29N 37°56' W 008°51'0 0.0
2018-May-17 06:59N 37°56' W 008°51'0 0.0
2018-May-17 06:29N 37°56' W 008°51'0 0.0
2018-May-17 05:59N 37°56' W 008°51'0 0.0
2018-May-17 05:29N 37°56' W 008°51'0 0.0
2018-May-17 04:59N 37°56' W 008°51'0 0.0
2018-May-17 04:29N 37°56' W 008°51'0 0.0
2018-May-17 03:59N 37°56' W 008°51'0 0.0
2018-May-17 03:29N 37°56' W 008°51'0 0.0
2018-May-17 02:59N 37°56' W 008°51'0 0.0
2018-May-17 02:29N 37°56' W 008°51'0 0.0
2018-May-17 01:59N 37°56' W 008°51'0 0.0
2018-May-17 01:29N 37°56' W 008°51'0 0.0
2018-May-17 00:59N 37°56' W 008°51'0 0.0
2018-May-17 00:29N 37°56' W 008°51'0 0.0
2018-May-16 23:59N 37°56' W 008°51'0 0.0
2018-May-16 23:29N 37°56' W 008°51'0 0.0
2018-May-16 22:59N 37°56' W 008°51'0 0.0
2018-May-16 22:29N 37°56' W 008°51'0 0.0
2018-May-16 21:59N 37°56' W 008°51'0 0.0
2018-May-16 21:29N 37°56' W 008°51'0 0.0
2018-May-16 20:59N 37°56' W 008°51'0 0.0
2018-May-16 20:29N 37°56' W 008°51'0 0.0
2018-May-16 19:56N 37°56' W 008°51'0 0.0
2018-May-16 19:29N 37°56' W 008°51'0 0.0
2018-May-16 18:59N 37°56' W 008°51'1 1.2
2018-May-16 18:30N 37°56' W 008°51'2 3.6
2018-May-16 18:01N 37°54' W 008°52'0 0.4
2018-May-16 17:29N 37°54' W 008°51'0 0.0
2018-May-16 16:59N 37°54' W 008°51'0 0.0
2018-May-16 16:29N 37°54' W 008°51'0 0.0
2018-May-16 15:59N 37°54' W 008°51'0 0.1
2018-May-16 15:29N 37°54' W 008°51'0 0.0
2018-May-16 14:59N 37°54' W 008°51'0 0.0
2018-May-16 14:29N 37°54' W 008°51'0 0.0
2018-May-16 13:59N 37°54' W 008°51'0 0.0
2018-May-16 13:26N 37°54' W 008°51'0 0.0
2018-May-16 12:59N 37°54' W 008°51'0 0.0
2018-May-16 12:29N 37°54' W 008°51'0 0.0
2018-May-16 11:59N 37°54' W 008°51'0 0.0
2018-May-16 11:29N 37°54' W 008°51'0 0.0
2018-May-16 10:59N 37°54' W 008°51'0 0.0
2018-May-16 10:29N 37°54' W 008°51'0 0.0
2018-May-16 09:59N 37°54' W 008°51'0 0.0
2018-May-16 09:29N 37°54' W 008°51'0 0.0
2018-May-16 08:59N 37°54' W 008°51'0 0.0
2018-May-16 08:29N 37°54' W 008°51'0 0.0
2018-May-16 07:59N 37°54' W 008°51'0 0.0
2018-May-16 07:29N 37°54' W 008°51'0 0.0
2018-May-16 06:59N 37°54' W 008°51'0 0.0
2018-May-16 06:29N 37°54' W 008°51'0 0.0
2018-May-16 05:59N 37°54' W 008°51'0 0.0
2018-May-16 05:29N 37°54' W 008°51'0 0.0
2018-May-16 04:59N 37°54' W 008°51'0 0.0
2018-May-16 04:29N 37°54' W 008°51'0 0.0
2018-May-16 03:59N 37°54' W 008°51'0 0.0
2018-May-16 03:29N 37°54' W 008°51'0 0.0
2018-May-16 02:59N 37°54' W 008°51'0 0.0
2018-May-16 02:29N 37°54' W 008°51'0 0.1
2018-May-16 01:59N 37°54' W 008°51'0 0.0
2018-May-16 01:29N 37°54' W 008°51'0 0.0
2018-May-16 00:59N 37°54' W 008°51'0 0.0
2018-May-16 00:29N 37°54' W 008°51'0 0.0
2018-May-15 23:59N 37°54' W 008°51'0 0.1
2018-May-15 23:29N 37°54' W 008°51'0 0.0
2018-May-15 22:59N 37°54' W 008°51'0 0.0
2018-May-15 22:29N 37°54' W 008°51'0 0.0
2018-May-15 21:59N 37°54' W 008°51'0 0.0
2018-May-15 21:29N 37°54' W 008°51'0 0.0
2018-May-15 20:59N 37°54' W 008°51'0 0.0
2018-May-15 20:29N 37°54' W 008°51'0 0.0
2018-May-15 19:59N 37°54' W 008°51'0 0.0
2018-May-15 19:29N 37°54' W 008°51'0 0.0
2018-May-15 18:59N 37°54' W 008°51'0 0.0
2018-May-15 18:29N 37°54' W 008°51'0 0.0
2018-May-15 17:59N 37°54' W 008°51'0 0.0
2018-May-15 17:29N 37°54' W 008°51'0 0.0
2018-May-15 16:59N 37°54' W 008°51'0 0.0
2018-May-15 16:29N 37°54' W 008°51'0 0.1
2018-May-15 15:59N 37°54' W 008°51'0 0.5
2018-May-15 15:31N 37°54' W 008°52'1 1.8
2018-May-15 15:00N 37°55' W 008°52'612.0
2018-May-15 14:30N 37°59' W 008°58'612.3
2018-May-15 14:00N 38°03' W 009°04'612.0
2018-May-15 13:30N 38°06' W 009°10'611.9
2018-May-15 13:00N 38°09' W 009°17'612.0
2018-May-15 12:30N 38°12' W 009°23'612.0
2018-May-15 12:00N 38°16' W 009°29'611.8
2018-May-15 11:30N 38°19' W 009°36'611.6
2018-May-15 11:00N 38°22' W 009°42'  

Dump ship's entire track history